createdAt,value
2022-11-01T00:01:53.816Z,15.50
2022-11-01T00:04:21.779Z,15.60
2022-11-01T00:06:49.415Z,15.60
2022-11-01T00:09:16.363Z,15.60
2022-11-01T00:11:43.338Z,15.50
2022-11-01T00:14:18.792Z,15.60
2022-11-01T00:16:45.758Z,15.70
2022-11-01T00:19:14.482Z,15.70
2022-11-01T00:21:41.278Z,15.70
2022-11-01T00:24:08.305Z,15.70
2022-11-01T00:26:35.324Z,15.70
2022-11-01T00:29:02.359Z,15.80
2022-11-01T00:31:29.744Z,15.70
2022-11-01T00:33:56.877Z,15.70
2022-11-01T00:36:23.778Z,15.80
2022-11-01T00:38:51.858Z,15.80
2022-11-01T00:41:20.791Z,15.90
2022-11-01T00:43:48.073Z,15.90
2022-11-01T00:46:15.215Z,15.90
2022-11-01T00:48:42.144Z,15.90
2022-11-01T00:51:09.034Z,15.90
2022-11-01T00:53:36.061Z,16.00
2022-11-01T00:56:05.298Z,15.90
2022-11-01T00:58:32.364Z,16.10
2022-11-01T01:00:59.618Z,16.10
2022-11-01T01:03:26.728Z,16.20
2022-11-01T01:05:54.311Z,16.30
2022-11-01T01:08:22.134Z,16.30
2022-11-01T01:10:49.532Z,16.40
2022-11-01T01:13:16.684Z,16.30
2022-11-01T01:15:43.647Z,16.30
2022-11-01T01:18:10.904Z,16.30
2022-11-01T01:20:38.064Z,16.40
2022-11-01T01:23:05.282Z,16.30
2022-11-01T01:25:32.251Z,16.20
2022-11-01T01:27:59.168Z,16.30
2022-11-01T01:30:26.114Z,16.40
2022-11-01T01:32:52.921Z,16.50
2022-11-01T01:35:19.742Z,16.60
2022-11-01T01:37:46.552Z,16.60
2022-11-01T01:40:13.626Z,16.70
2022-11-01T01:42:42.639Z,16.80
2022-11-01T01:45:34.292Z,16.80
2022-11-01T01:48:21.929Z,16.90
2022-11-01T01:51:03.344Z,17.00
2022-11-01T01:53:41.866Z,17.10
2022-11-01T01:56:19.836Z,17.10
2022-11-01T01:58:54.861Z,17.20
2022-11-01T02:01:22.055Z,17.30
2022-11-01T02:03:49.311Z,17.30
2022-11-01T02:06:19.064Z,17.40
2022-11-01T02:08:55.676Z,17.30
2022-11-01T02:11:22.849Z,17.40
2022-11-01T02:13:50.430Z,17.40
2022-11-01T02:16:35.888Z,17.50
2022-11-01T02:19:05.410Z,17.40
2022-11-01T02:21:46.658Z,17.40
2022-11-01T02:24:28.680Z,17.50
2022-11-01T02:27:25.819Z,17.50
2022-11-01T02:30:05.016Z,17.60
2022-11-01T02:32:37.632Z,17.60
2022-11-01T02:35:23.218Z,17.60
2022-11-01T02:38:10.105Z,17.70
2022-11-01T02:40:43.644Z,17.70
2022-11-01T02:43:18.231Z,17.60
2022-11-01T02:45:49.916Z,17.60
2022-11-01T02:48:20.262Z,17.60
2022-11-01T02:50:53.700Z,17.50
2022-11-01T02:53:20.440Z,17.40
2022-11-01T02:55:47.191Z,17.40
2022-11-01T02:58:23.671Z,17.50
2022-11-01T03:00:51.995Z,17.40
2022-11-01T03:03:21.023Z,17.40
2022-11-01T03:06:07.292Z,17.40
2022-11-01T03:08:41.297Z,17.40
2022-11-01T03:11:23.519Z,17.30
2022-11-01T03:14:02.079Z,17.30
2022-11-01T03:16:48.016Z,17.30
2022-11-01T03:19:37.495Z,17.40
2022-11-01T03:22:18.080Z,17.40
2022-11-01T03:24:52.547Z,17.50
2022-11-01T03:27:42.204Z,17.50
2022-11-01T03:30:13.983Z,17.50
2022-11-01T03:32:49.265Z,17.50
2022-11-01T03:35:24.060Z,17.50
2022-11-01T03:37:54.719Z,17.60
2022-11-01T03:40:24.716Z,17.60
2022-11-01T03:42:53.506Z,17.60
2022-11-01T03:47:56.191Z,17.60
2022-11-01T03:50:26.039Z,17.60
2022-11-01T03:52:53.039Z,17.60
2022-11-01T03:55:20.904Z,17.60
2022-11-01T03:57:56.839Z,17.50
2022-11-01T04:00:26.412Z,17.60
2022-11-01T04:02:55.063Z,17.60
2022-11-01T04:05:23.995Z,17.60
2022-11-01T04:07:51.546Z,17.50
2022-11-01T04:10:19.724Z,17.50
2022-11-01T04:12:48.360Z,17.40
2022-11-01T04:15:35.274Z,17.30
2022-11-01T04:18:21.601Z,17.20
2022-11-01T04:20:48.714Z,17.10
2022-11-01T04:23:15.951Z,17.20
2022-11-01T04:25:46.167Z,17.20
2022-11-01T04:28:14.079Z,17.10
2022-11-01T04:30:41.735Z,17.10
2022-11-01T04:33:09.024Z,17.10
2022-11-01T04:35:39.150Z,17.10
2022-11-01T04:38:06.630Z,17.10
2022-11-01T04:40:34.329Z,17.00
2022-11-01T04:43:01.480Z,17.00
2022-11-01T04:45:28.483Z,17.00
2022-11-01T04:48:08.000Z,17.00
2022-11-01T04:50:35.791Z,17.00
2022-11-01T04:53:02.835Z,16.90
2022-11-01T04:55:30.142Z,16.90
2022-11-01T04:57:57.539Z,16.90
2022-11-01T05:00:25.181Z,16.90
2022-11-01T05:02:52.771Z,16.90
2022-11-01T05:05:19.675Z,16.90
2022-11-01T05:07:46.468Z,16.90
2022-11-01T05:10:13.406Z,16.80
2022-11-01T05:12:40.139Z,16.80
2022-11-01T05:15:07.686Z,16.90
2022-11-01T05:17:34.449Z,16.90
2022-11-01T05:20:01.218Z,16.80
2022-11-01T05:22:27.956Z,16.80
2022-11-01T05:24:54.728Z,16.80
2022-11-01T05:27:21.455Z,16.90
2022-11-01T05:29:48.243Z,16.90
2022-11-01T05:32:16.136Z,16.90
2022-11-01T05:34:42.943Z,17.00
2022-11-01T05:37:10.676Z,17.00
2022-11-01T05:39:37.495Z,16.90
2022-11-01T05:42:04.509Z,17.00
2022-11-01T05:44:31.356Z,16.90
2022-11-01T05:46:58.121Z,16.90
2022-11-01T05:49:24.933Z,16.90
2022-11-01T05:51:51.722Z,16.90
2022-11-01T05:54:18.449Z,16.90
2022-11-01T05:56:45.237Z,16.90
2022-11-01T05:59:12.023Z,16.90
2022-11-01T06:01:38.893Z,16.90
2022-11-01T06:04:05.775Z,16.80
2022-11-01T06:06:32.775Z,16.80
2022-11-01T06:09:00.215Z,16.90
2022-11-01T06:11:27.453Z,16.90
2022-11-01T06:13:58.424Z,16.90
2022-11-01T06:16:26.510Z,16.80
2022-11-01T06:18:54.080Z,16.90
2022-11-01T06:21:26.063Z,16.90
2022-11-01T06:23:56.036Z,16.90
2022-11-01T06:26:22.779Z,16.80
2022-11-01T06:28:49.746Z,16.90
2022-11-01T06:31:16.592Z,16.90
2022-11-01T06:33:43.288Z,16.90
2022-11-01T06:36:10.147Z,16.90
2022-11-01T06:38:36.914Z,16.80
2022-11-01T06:41:03.831Z,16.80
2022-11-01T06:43:30.562Z,16.80
2022-11-01T06:46:00.261Z,16.70
2022-11-01T06:48:27.663Z,16.70
2022-11-01T06:50:55.779Z,16.70
2022-11-01T06:53:23.694Z,16.70
2022-11-01T06:55:51.295Z,16.80
2022-11-01T06:58:18.333Z,16.80
2022-11-01T07:00:45.148Z,16.90
2022-11-01T07:03:14.182Z,17.00
2022-11-01T07:05:41.903Z,16.90
2022-11-01T07:08:11.498Z,16.90
2022-11-01T07:10:40.124Z,16.90
2022-11-01T07:13:07.762Z,16.90
2022-11-01T07:15:35.220Z,16.90
2022-11-01T07:18:05.254Z,17.00
2022-11-01T07:20:36.408Z,17.00
2022-11-01T07:23:05.524Z,17.00
2022-11-01T07:25:33.296Z,17.00
2022-11-01T07:28:00.107Z,17.00
2022-11-01T07:30:27.648Z,17.10
2022-11-01T07:32:59.642Z,17.20
2022-11-01T07:35:27.415Z,17.20
2022-11-01T07:37:58.139Z,17.30
2022-11-01T07:40:27.930Z,17.30
2022-11-01T07:42:56.844Z,17.40
2022-11-01T07:45:26.118Z,17.40
2022-11-01T07:47:53.333Z,17.40
2022-11-01T07:50:20.499Z,17.50
2022-11-01T07:52:47.326Z,17.50
2022-11-01T07:55:14.169Z,17.60
2022-11-01T07:57:41.598Z,17.70
2022-11-01T08:00:09.893Z,17.80
2022-11-01T08:02:36.683Z,18.00
2022-11-01T08:05:03.675Z,18.10
2022-11-01T08:07:30.414Z,18.10
2022-11-01T08:09:57.124Z,18.20
2022-11-01T08:12:23.821Z,18.30
2022-11-01T08:14:50.564Z,18.30
2022-11-01T08:17:17.259Z,18.40
2022-11-01T08:19:43.983Z,18.60
2022-11-01T08:22:10.693Z,18.70
2022-11-01T08:24:37.456Z,18.90
2022-11-01T08:27:04.267Z,18.90
2022-11-01T08:29:31.021Z,18.90
2022-11-01T08:31:57.740Z,18.80
2022-11-01T08:34:24.481Z,18.70
2022-11-01T08:36:51.221Z,18.60
2022-11-01T08:39:18.201Z,18.50
2022-11-01T08:41:48.606Z,18.50
2022-11-01T08:44:15.963Z,18.50
2022-11-01T08:46:43.485Z,18.50
2022-11-01T08:49:11.228Z,18.50
2022-11-01T08:51:38.332Z,18.40
2022-11-01T08:54:07.741Z,18.50
2022-11-01T08:56:34.628Z,18.50
2022-11-01T08:59:01.496Z,18.60
2022-11-01T09:01:28.395Z,18.60
2022-11-01T09:04:00.457Z,18.60
2022-11-01T09:06:33.694Z,18.80
2022-11-01T09:09:03.286Z,18.80
2022-11-01T09:11:30.623Z,18.90
2022-11-01T09:14:01.192Z,18.90
2022-11-01T09:16:28.264Z,19.00
2022-11-01T09:18:55.162Z,19.00
2022-11-01T09:21:21.866Z,18.90
2022-11-01T09:23:48.756Z,18.90
2022-11-01T09:26:15.471Z,18.90
2022-11-01T09:28:42.229Z,19.00
2022-11-01T09:31:27.372Z,19.10
2022-11-01T09:33:56.400Z,19.10
2022-11-01T09:36:24.623Z,19.10
2022-11-01T09:38:51.579Z,19.20
2022-11-01T09:41:28.597Z,19.40
2022-11-01T09:43:57.706Z,19.40
2022-11-01T09:46:28.513Z,19.50
2022-11-01T09:48:56.748Z,19.70
2022-11-01T09:51:25.731Z,19.80
2022-11-01T09:54:00.771Z,19.90
2022-11-01T09:56:57.795Z,19.90
2022-11-01T09:59:45.877Z,19.80
2022-11-01T10:02:50.257Z,19.90
2022-11-01T10:05:30.693Z,19.90
2022-11-01T10:08:08.018Z,19.90
2022-11-01T10:10:49.832Z,19.90
2022-11-01T10:13:24.421Z,19.90
2022-11-01T10:16:02.643Z,19.80
2022-11-01T10:18:31.463Z,19.80
2022-11-01T10:21:01.783Z,19.80
2022-11-01T10:23:50.050Z,19.80
2022-11-01T10:26:34.765Z,19.70
2022-11-01T10:29:25.287Z,19.60
2022-11-01T10:31:54.967Z,19.60
2022-11-01T10:34:31.966Z,19.80
2022-11-01T10:37:21.535Z,19.90
2022-11-01T10:40:01.479Z,19.70
2022-11-01T10:42:33.015Z,19.40
2022-11-01T10:45:04.820Z,19.20
2022-11-01T10:47:31.858Z,19.20
2022-11-01T10:50:08.129Z,19.20
2022-11-01T10:52:48.387Z,19.20
2022-11-01T10:55:20.911Z,19.30
2022-11-01T10:57:56.365Z,19.20
2022-11-01T11:00:23.711Z,19.20
2022-11-01T11:03:00.322Z,19.20
2022-11-01T11:05:29.516Z,19.40
2022-11-01T11:07:57.520Z,19.60
2022-11-01T11:10:28.298Z,19.80
2022-11-01T11:13:06.755Z,19.90
2022-11-01T11:15:47.642Z,20.00
2022-11-01T11:18:33.895Z,20.00
2022-11-01T11:21:04.704Z,20.00
2022-11-01T11:23:34.574Z,20.00
2022-11-01T11:26:08.286Z,20.00
2022-11-01T11:28:44.287Z,20.20
2022-11-01T11:31:32.577Z,20.30
2022-11-01T11:34:27.249Z,20.30
2022-11-01T11:36:55.074Z,20.30
2022-11-01T11:39:28.606Z,20.30
2022-11-01T11:42:10.142Z,20.40
2022-11-01T11:44:41.904Z,20.40
2022-11-01T11:47:24.493Z,20.50
2022-11-01T11:49:53.953Z,20.40
2022-11-01T11:52:35.428Z,20.40
2022-11-01T11:55:05.905Z,20.30
2022-11-01T11:57:34.291Z,20.30
2022-11-01T12:00:05.443Z,20.30
2022-11-01T12:02:36.082Z,20.20
2022-11-01T12:05:09.426Z,20.40
2022-11-01T12:07:45.327Z,20.50
2022-11-01T12:10:46.196Z,20.60
2022-11-01T12:13:37.370Z,20.70
2022-11-01T12:16:13.128Z,20.70
2022-11-01T12:18:50.295Z,20.60
2022-11-01T12:21:36.607Z,20.50
2022-11-01T12:24:21.490Z,20.40
2022-11-01T12:26:51.344Z,20.30
2022-11-01T12:29:32.627Z,20.40
2022-11-01T12:32:27.879Z,20.30
2022-11-01T12:34:57.941Z,20.20
2022-11-01T12:37:55.624Z,20.30
2022-11-01T12:40:36.704Z,20.10
2022-11-01T12:43:32.625Z,20.00
2022-11-01T12:46:19.098Z,19.90
2022-11-01T12:49:00.343Z,19.90
2022-11-01T12:51:35.082Z,19.90
2022-11-01T12:54:16.923Z,19.90
2022-11-01T12:56:43.747Z,20.00
2022-11-01T12:59:15.138Z,19.90
2022-11-01T13:02:16.855Z,19.90
2022-11-01T13:04:55.737Z,20.00
2022-11-01T13:08:23.013Z,20.00
2022-11-01T13:10:50.057Z,20.10
2022-11-01T13:13:25.475Z,20.20
2022-11-01T13:16:04.728Z,20.20
2022-11-01T13:18:56.179Z,20.20
2022-11-01T13:21:41.629Z,20.30
2022-11-01T13:24:26.055Z,20.20
2022-11-01T13:27:10.119Z,20.10
2022-11-01T13:29:59.610Z,20.10
2022-11-01T13:32:59.192Z,20.10
2022-11-01T13:35:50.983Z,20.00
2022-11-01T13:38:23.028Z,19.90
2022-11-01T13:41:11.151Z,19.80
2022-11-01T13:43:41.926Z,19.70
2022-11-01T13:46:50.375Z,19.60
2022-11-01T13:49:47.300Z,19.50
2022-11-01T13:52:40.636Z,19.50
2022-11-01T13:55:38.002Z,19.50
2022-11-01T13:58:08.243Z,19.50
2022-11-01T14:00:39.726Z,19.50
2022-11-01T14:03:33.097Z,19.50
2022-11-01T14:06:11.555Z,19.40
2022-11-01T14:08:41.068Z,19.30
2022-11-01T14:11:12.600Z,19.40
2022-11-01T14:13:42.036Z,19.50
2022-11-01T14:16:14.669Z,19.60
2022-11-01T14:19:03.454Z,19.60
2022-11-01T14:21:52.914Z,19.50
2022-11-01T14:24:34.547Z,19.60
2022-11-01T14:27:18.040Z,19.60
2022-11-01T14:29:44.933Z,19.50
2022-11-01T14:32:11.927Z,19.40
2022-11-01T14:34:41.547Z,19.40
2022-11-01T14:37:22.643Z,19.30
2022-11-01T14:39:58.267Z,19.20
2022-11-01T14:42:36.887Z,19.00
2022-11-01T14:45:22.558Z,18.90
2022-11-01T14:47:51.276Z,18.80
2022-11-01T14:50:29.023Z,18.70
2022-11-01T14:53:03.241Z,18.60
2022-11-01T14:55:36.180Z,18.50
2022-11-01T14:58:23.339Z,18.50
2022-11-01T15:00:54.593Z,18.40
2022-11-01T15:03:22.279Z,18.40
2022-11-01T15:05:51.586Z,18.30
2022-11-01T15:08:40.511Z,18.30
2022-11-01T15:11:07.792Z,18.30
2022-11-01T15:13:39.067Z,18.40
2022-11-01T15:16:23.522Z,18.40
2022-11-01T15:18:55.374Z,18.40
2022-11-01T15:21:27.258Z,18.50
2022-11-01T15:23:57.915Z,18.60
2022-11-01T15:26:28.075Z,18.40
2022-11-01T15:28:56.816Z,18.40
2022-11-01T15:31:24.312Z,18.50
2022-11-01T15:33:55.576Z,18.40
2022-11-01T15:36:34.013Z,18.40
2022-11-01T15:39:03.603Z,18.40
2022-11-01T15:41:32.672Z,18.30
2022-11-01T15:44:01.960Z,18.40
2022-11-01T15:46:33.079Z,18.40
2022-11-01T15:49:22.819Z,18.40
2022-11-01T15:51:54.362Z,18.50
2022-11-01T15:54:31.815Z,18.50
2022-11-01T15:57:02.631Z,18.50
2022-11-01T15:59:38.135Z,18.50
2022-11-01T16:02:11.821Z,18.40
2022-11-01T16:04:45.427Z,18.30
2022-11-01T16:07:17.504Z,18.30
2022-11-01T16:09:46.283Z,18.40
2022-11-01T16:12:25.847Z,18.40
2022-11-01T16:15:24.607Z,18.30
2022-11-01T16:17:54.556Z,18.20
2022-11-01T16:20:35.034Z,18.30
2022-11-01T16:23:26.044Z,18.20
2022-11-01T16:26:07.713Z,18.10
2022-11-01T16:28:39.905Z,18.00
2022-11-01T16:31:28.395Z,18.00
2022-11-01T16:33:56.852Z,17.90
2022-11-01T16:36:33.788Z,17.90
2022-11-01T16:39:00.623Z,17.80
2022-11-01T16:41:39.597Z,17.70
2022-11-01T16:44:16.846Z,17.70
2022-11-01T16:46:44.243Z,17.60
2022-11-01T16:49:25.891Z,17.50
2022-11-01T16:51:56.207Z,17.50
2022-11-01T16:54:26.600Z,17.40
2022-11-01T16:56:55.312Z,17.40
2022-11-01T16:59:22.054Z,17.30
2022-11-01T17:01:49.793Z,17.30
2022-11-01T17:04:18.517Z,17.20
2022-11-01T17:06:45.435Z,17.20
2022-11-01T17:09:13.850Z,17.10
2022-11-01T17:11:43.929Z,16.90
2022-11-01T17:14:13.732Z,16.90
2022-11-01T17:16:43.374Z,16.70
2022-11-01T17:19:21.411Z,16.60
2022-11-01T17:21:50.114Z,16.50
2022-11-01T17:24:19.730Z,16.60
2022-11-01T17:26:48.396Z,16.60
2022-11-01T17:29:15.255Z,16.60
2022-11-01T17:31:42.059Z,16.50
2022-11-01T17:34:09.013Z,16.40
2022-11-01T17:36:36.452Z,16.40
2022-11-01T17:39:03.865Z,16.40
2022-11-01T17:41:30.817Z,16.50
2022-11-01T17:43:57.521Z,16.40
2022-11-01T17:46:25.588Z,16.30
2022-11-01T17:48:52.346Z,16.30
2022-11-01T17:51:19.329Z,16.30
2022-11-01T17:53:46.619Z,16.30
2022-11-01T17:56:13.380Z,16.30
2022-11-01T17:58:40.183Z,17.10
2022-11-01T18:01:08.275Z,16.20
2022-11-01T18:03:35.124Z,16.10
2022-11-01T18:06:01.982Z,16.10
2022-11-01T18:08:33.422Z,15.90
2022-11-01T18:11:28.040Z,15.90
2022-11-01T18:14:15.772Z,15.70
2022-11-01T18:17:02.434Z,15.60
2022-11-01T18:19:35.034Z,15.60
2022-11-01T18:22:07.213Z,15.50
2022-11-01T18:24:58.958Z,15.50
2022-11-01T18:27:37.502Z,15.60
2022-11-01T18:30:18.783Z,15.50
2022-11-01T18:33:01.115Z,15.70
2022-11-01T18:35:45.583Z,15.70
2022-11-01T18:38:31.235Z,15.80
2022-11-01T18:41:03.271Z,15.90
2022-11-01T18:43:35.135Z,15.90
2022-11-01T18:46:27.360Z,15.90
2022-11-01T18:49:00.423Z,15.80
2022-11-01T18:51:33.606Z,15.80
2022-11-01T18:54:09.597Z,15.90
2022-11-01T18:56:51.326Z,16.00
2022-11-01T18:59:35.530Z,16.00
2022-11-01T19:02:23.378Z,16.00
2022-11-01T19:04:52.640Z,16.00
2022-11-01T19:07:35.375Z,16.00
2022-11-01T19:10:22.024Z,16.00
2022-11-01T19:12:56.134Z,16.00
2022-11-01T19:15:24.900Z,16.10
2022-11-01T19:17:58.454Z,16.10
2022-11-01T19:20:30.820Z,16.10
2022-11-01T19:23:03.015Z,16.10
2022-11-01T19:25:35.516Z,16.10
2022-11-01T19:28:12.219Z,16.10
2022-11-01T19:30:39.070Z,16.10
2022-11-01T19:33:29.862Z,16.10
2022-11-01T19:35:57.952Z,16.10
2022-11-01T19:38:24.692Z,16.10
2022-11-01T19:40:53.045Z,16.10
2022-11-01T19:43:22.727Z,16.00
2022-11-01T19:45:54.841Z,16.00
2022-11-01T19:48:31.646Z,16.00
2022-11-01T19:51:00.077Z,16.10
2022-11-01T19:53:30.790Z,16.10
2022-11-01T19:56:02.604Z,16.00
2022-11-01T19:58:48.852Z,16.00
2022-11-01T20:01:19.790Z,16.00
2022-11-01T20:03:58.162Z,15.90
2022-11-01T20:06:30.706Z,15.90
2022-11-01T20:09:13.180Z,15.90
2022-11-01T20:11:40.033Z,15.80
2022-11-01T20:14:06.822Z,15.80
2022-11-01T20:16:33.584Z,15.60
2022-11-01T20:19:00.324Z,15.50
2022-11-01T20:21:27.255Z,15.50
2022-11-01T20:23:54.336Z,15.40
2022-11-01T20:26:21.300Z,15.20
2022-11-01T20:28:49.086Z,15.10
2022-11-01T20:31:15.856Z,15.00
2022-11-01T20:33:42.938Z,15.00
2022-11-01T20:36:11.366Z,15.00
2022-11-01T20:38:39.468Z,14.90
2022-11-01T20:41:06.586Z,14.90
2022-11-01T20:43:33.320Z,14.80
2022-11-01T20:46:00.095Z,14.80
2022-11-01T20:48:26.960Z,14.80
2022-11-01T20:50:53.920Z,14.70
2022-11-01T20:53:21.021Z,14.60
2022-11-01T20:55:48.908Z,14.70
2022-11-01T20:58:15.759Z,14.60
2022-11-01T21:00:42.852Z,14.70
2022-11-01T21:03:16.066Z,14.60
2022-11-01T21:05:45.349Z,14.50
2022-11-01T21:08:22.576Z,14.40
2022-11-01T21:11:01.598Z,14.30
2022-11-01T21:13:33.107Z,14.30
2022-11-01T21:16:01.719Z,14.30
2022-11-01T21:18:33.696Z,14.30
2022-11-01T21:21:15.953Z,14.20
2022-11-01T21:23:44.648Z,14.20
2022-11-01T21:26:23.848Z,14.20
2022-11-01T21:28:53.367Z,14.30
2022-11-01T21:31:29.113Z,14.30
2022-11-01T21:34:01.783Z,14.40
2022-11-01T21:36:41.287Z,14.50
2022-11-01T21:39:13.995Z,14.60
2022-11-01T21:41:49.663Z,14.60
2022-11-01T21:44:28.557Z,14.80
2022-11-01T21:47:11.905Z,14.90
2022-11-01T21:49:38.864Z,14.80
2022-11-01T21:52:08.636Z,14.70
2022-11-01T21:54:37.955Z,14.90
2022-11-01T21:57:07.380Z,14.90
2022-11-01T21:59:34.849Z,14.90
2022-11-01T22:02:02.761Z,14.90
2022-11-01T22:04:31.045Z,15.00
2022-11-01T22:06:59.554Z,15.00
2022-11-01T22:09:27.105Z,15.00
2022-11-01T22:11:54.531Z,15.00
2022-11-01T22:14:21.845Z,15.10
2022-11-01T22:16:48.762Z,15.10
2022-11-01T22:19:15.599Z,15.20
2022-11-01T22:21:42.545Z,15.20
2022-11-01T22:24:09.680Z,15.30
2022-11-01T22:26:36.495Z,15.30
2022-11-01T22:29:03.432Z,15.40
2022-11-01T22:31:30.226Z,15.40
2022-11-01T22:33:57.303Z,15.50
2022-11-01T22:36:29.232Z,15.50
2022-11-01T22:38:58.194Z,15.50
2022-11-01T22:41:31.599Z,15.60
2022-11-01T22:44:04.316Z,15.50
2022-11-01T22:46:56.976Z,15.60
2022-11-01T22:49:40.149Z,15.60
2022-11-01T22:52:29.292Z,15.60
2022-11-01T22:55:23.074Z,15.60
2022-11-01T22:57:55.562Z,15.60
2022-11-01T23:00:30.091Z,15.60
2022-11-01T23:03:10.837Z,15.50
2022-11-01T23:05:38.050Z,15.60
2022-11-01T23:08:29.700Z,15.60
2022-11-01T23:10:57.237Z,15.60
2022-11-01T23:13:45.646Z,15.50
2022-11-01T23:16:34.671Z,15.50
2022-11-01T23:19:03.431Z,15.40
2022-11-01T23:21:30.343Z,15.30
2022-11-01T23:23:57.347Z,15.00
2022-11-01T23:26:24.587Z,14.80
2022-11-01T23:28:57.087Z,14.70
2022-11-01T23:31:25.781Z,14.80
2022-11-01T23:33:52.690Z,14.80
2022-11-01T23:36:22.695Z,14.80
2022-11-01T23:39:11.646Z,14.80
2022-11-01T23:41:41.730Z,14.50
2022-11-01T23:44:20.156Z,14.50
2022-11-01T23:46:46.965Z,14.20
2022-11-01T23:49:19.916Z,14.10
2022-11-01T23:51:46.813Z,14.10
2022-11-01T23:54:42.009Z,14.10
2022-11-01T23:57:17.587Z,14.00
2022-11-01T23:59:44.436Z,14.10
